SKBOSKSM

Guest
Details From SKBO - Bogota - El Dorado Intl
To SKSM - SIMON BOLIVAR
Flight Number -
Tags decoded
Created
Modified
Stats Distance 390 nm / 723 km
Max Altitude 0 ft / 0 m
Waypoints 7
Social Downloads 1
Likes 0
Share VATSIM

Download

Looking for another format? Having issues loading an existing format? Contact us
Advertisement - Login to hide

Notes

Requested: SKBO ZIP9G ZIP W44 BUV A301 EJA W12 ELB W9 EDVAR W9 STA SKSM Unmatched points: ZIP9G A301 W12 W9 EDVAR W9

Route

SKBO ZIP W44 BUV EJA ELB STA SKSM

ID Type Via Altitude Latitude Longitude Leg Dist Tot Dist Heading (true) Name
O SKBO APT - 0 ft / 0 m 4.70159˚ -74.14695˚ - 0 nm - Bogota - El Dorado Intl
ZIP NDB - 0 ft / 0 m 5.01631˚ -73.98494˚ 21 nm 21 nm 27° / 27° ZIPAQUIRA NDB
BUV VOR W44 (AWY-LO) 0 ft / 0 m 5.53222˚ -73.85861˚ 31 nm 53 nm 14° / 14° BUVIS VOR-DME
EJA VOR - 0 ft / 0 m 7.02853˚ -73.80550˚ 89 nm 143 nm 2° / 2° BARRANCABERMEJA VOR-DME
ELB VOR - 0 ft / 0 m 9.04528˚ -73.96722˚ 121 nm 264 nm 355° / 355° EL BANCO VOR-DME
STA VOR - 0 ft / 0 m 10.96454˚ -74.23837˚ 116 nm 380 nm 352° / 352° SANTA MARTA VOR-DME
O SKSM APT - 0 ft / 0 m 11.11965˚ -74.23065˚ 9 nm 390 nm 3° / 3° SIMON BOLIVAR

Altitude Profile

Advertisement - Login to hide

Weather


0- 5 10 15 20 25 30 35+ Temperature / ° C

Clouds and Precipitation
Forecast for 2017-12-11 12:00 UTC. Updated 41 minutes ago

Ground ~20,000 ft ~40,000 ft Winds

SKBO

Details ICAO SKBO (BOG)
Name Bogota - El Dorado Intl
Region Colombia
Timezone America/Bogota (UTC-5.0)
Stats Elevation 8,361 ft / 2,548 m (AMSL)
Location 4.701594° -74.146946°
Runways 2
Magnetic Variation 7.266° W

METAR

SKBO 111200Z VRB02KT 9999 SCT018 SCT080 12/11 A3034

Decode

TAF

Not found

Departure Runways

ID Width Length Bearing (true) Bearing (mag) Surface Threshold Offset Overrun Length
13L 148 ft / 45 m 12,482 ft / 3,804 m 127.21° 134.48° Asphalt 0 ft / 0 m 0 ft / 0 m
13R 148 ft / 45 m 12,494 ft / 3,808 m 127.23° 134.50° Asphalt 0 ft / 0 m 200 ft / 61 m
31L 148 ft / 45 m 12,494 ft / 3,808 m 307.23° 314.50° Asphalt 0 ft / 0 m 190 ft / 58 m
31R 148 ft / 45 m 12,482 ft / 3,804 m 307.21° 314.48° Asphalt 0 ft / 0 m 0 ft / 0 m

SKSM

Details ICAO SKSM (SMR)
Name SIMON BOLIVAR
Region Colombia
Timezone Unknown (UTC+0.0)
Stats Elevation 22 ft / 7 m (AMSL)
Location 11.119649° -74.230646°
Runways 1
Magnetic Variation 8.100° W

METAR

SKSM 111200Z 03004KT 9999 FEW020 24/22 A2986

Decode

TAF

Not found

Destination Runways

ID Width Length Bearing (true) Bearing (mag) Surface Threshold Offset Overrun Length
01 98 ft / 30 m 5,618 ft / 1,712 m 358.67° 6.77° Asphalt 0 ft / 0 m 0 ft / 0 m
19 98 ft / 30 m 5,618 ft / 1,712 m 178.67° 186.77° Asphalt 0 ft / 0 m 0 ft / 0 m

Popular Alternatives